Time;durP1;ratioP1;P1;durP2;ratioP2;P2;SDS_P1;SDS_P2;PMS_P1;PMS_P2;Temp;Humidity;BMP_temperature;BMP_pressure;BME280_temperature;BME280_humidity;BME280_pressure;Samples;Min_cycle;Max_cycle;Signal;HPM_P1;HPM_P2
2023/01/21 00:01:40;;;;;;;15.90;11.73;;;;;;;6.65;100.00;98962.59;5072656;28;20583;-54
2023/01/21 00:04:07;;;;;;;13.37;10.90;;;;;;;6.55;100.00;98959.34;5072457;28;20204;-55
2023/01/21 00:06:35;;;;;;;16.03;11.47;;;;;;;6.56;100.00;98959.31;5072149;28;20203;-56
2023/01/21 00:09:03;;;;;;;16.47;11.80;;;;;;;6.53;100.00;98953.38;5071781;28;20200;-56
2023/01/21 00:11:30;;;;;;;17.67;10.30;;;;;;;6.55;100.00;98960.19;5071999;28;20291;-59
2023/01/21 00:13:58;;;;;;;14.57;11.33;;;;;;;6.64;100.00;98966.06;5072355;28;20571;-58
2023/01/21 00:16:25;;;;;;;15.07;11.40;;;;;;;6.65;100.00;98963.44;5072113;28;20652;-58
2023/01/21 00:18:52;;;;;;;15.00;11.23;;;;;;;6.71;100.00;98976.19;5069309;28;20578;-59
2023/01/21 00:21:19;;;;;;;17.37;11.80;;;;;;;6.78;100.00;98987.19;5071418;28;20223;-58
2023/01/21 00:23:47;;;;;;;15.00;11.37;;;;;;;6.80;100.00;98985.44;5072155;28;20215;-58
2023/01/21 00:26:14;;;;;;;14.67;11.43;;;;;;;6.64;100.00;98976.38;5069290;28;20199;-58
2023/01/21 00:28:42;;;;;;;16.50;12.03;;;;;;;6.63;100.00;98985.81;5071829;28;20192;-56
2023/01/21 00:31:11;;;;;;;14.13;10.80;;;;;;;6.62;100.00;98985.84;5071601;28;20676;-59
2023/01/21 00:33:38;;;;;;;18.77;11.27;;;;;;;6.63;100.00;98987.56;5071794;28;20279;-58
2023/01/21 00:36:07;;;;;;;16.73;11.07;;;;;;;6.50;100.00;98987.81;5071405;28;20282;-58
2023/01/21 00:38:35;;;;;;;15.07;11.13;;;;;;;6.49;100.00;98986.09;5069479;28;20580;-58
2023/01/21 00:41:05;;;;;;;13.77;11.10;;;;;;;6.34;100.00;98983.84;5071213;28;20212;-55
2023/01/21 00:43:32;;;;;;;14.73;11.13;;;;;;;6.40;100.00;98998.34;5071179;28;20615;-56
2023/01/21 00:45:59;;;;;;;14.47;10.33;;;;;;;6.37;100.00;99006.13;5071318;28;20195;-55
2023/01/21 00:48:27;;;;;;;17.33;11.70;;;;;;;6.33;100.00;98996.75;5071346;28;20192;-56
2023/01/21 00:50:54;;;;;;;15.23;11.33;;;;;;;6.27;100.00;98992.59;5068874;28;20192;-56
2023/01/21 00:53:21;;;;;;;17.40;11.67;;;;;;;6.16;100.00;98989.38;5071691;28;20204;-55
2023/01/21 00:55:48;;;;;;;17.43;11.73;;;;;;;6.10;100.00;98990.31;5071362;28;20218;-55
2023/01/21 00:58:17;;;;;;;15.67;11.30;;;;;;;6.10;100.00;98981.75;5071004;28;20206;-55
2023/01/21 01:00:44;;;;;;;17.43;12.37;;;;;;;6.11;100.00;98976.56;5071060;28;20214;-55
2023/01/21 01:03:11;;;;;;;15.90;10.67;;;;;;;6.16;100.00;98986.78;5070986;28;20195;-59
2023/01/21 01:05:38;;;;;;;16.57;10.43;;;;;;;6.18;100.00;98983.31;5071364;28;20192;-55
2023/01/21 01:08:05;;;;;;;17.90;11.50;;;;;;;6.11;100.00;98980.88;5071048;28;20663;-55
2023/01/21 01:10:32;;;;;;;13.77;11.00;;;;;;;6.06;100.00;98974.97;5070925;28;20196;-55
2023/01/21 01:13:01;;;;;;;14.70;11.23;;;;;;;6.15;100.00;98982.50;5070817;28;20192;-58
2023/01/21 01:15:29;;;;;;;18.77;11.63;;;;;;;6.13;100.00;98979.13;5070913;28;20672;-58
2023/01/21 01:17:56;;;;;;;18.10;11.53;;;;;;;5.98;100.00;98967.38;5071094;28;20575;-58
2023/01/21 01:20:23;;;;;;;14.83;10.83;;;;;;;5.91;100.00;98959.78;5070672;28;20230;-55
2023/01/21 01:22:49;;;;;;;19.33;12.53;;;;;;;5.90;100.00;98960.66;5070705;28;20194;-55
2023/01/21 01:25:16;;;;;;;18.00;12.37;;;;;;;5.83;100.00;98970.22;5070694;28;20667;-58
2023/01/21 01:27:43;;;;;;;15.83;11.47;;;;;;;5.72;100.00;98962.69;5070715;28;20694;-55
2023/01/21 01:30:11;;;;;;;17.13;11.77;;;;;;;5.88;100.00;98959.81;5070359;28;20192;-55
2023/01/21 01:32:40;;;;;;;14.57;11.27;;;;;;;5.88;100.00;98954.66;5070633;28;20202;-56
2023/01/21 01:35:07;;;;;;;16.73;10.87;;;;;;;5.80;100.00;98958.25;5070288;28;20192;-58
2023/01/21 01:37:34;;;;;;;15.47;11.73;;;;;;;5.83;100.00;98971.06;5067896;28;20196;-56
2023/01/21 01:40:01;;;;;;;16.67;11.40;;;;;;;5.89;100.00;98969.28;5070220;28;20230;-55
2023/01/21 01:42:28;;;;;;;15.10;11.10;;;;;;;5.79;100.00;98956.53;5070559;28;20195;-58
2023/01/21 01:44:58;;;;;;;17.10;11.60;;;;;;;5.86;100.00;98952.16;5070629;28;20227;-55
2023/01/21 01:47:30;;;;;;;13.40;11.00;;;;;;;5.86;100.00;98959.88;5070500;28;20200;-58
2023/01/21 01:50:01;;;;;;;16.90;11.23;;;;;;;5.75;100.00;98959.22;5068106;28;20529;-55
2023/01/21 01:52:29;;;;;;;14.27;10.97;;;;;;;5.62;100.00;98957.75;5070043;28;20288;-54
2023/01/21 01:55:00;;;;;;;14.73;11.10;;;;;;;5.65;100.00;98948.22;5070008;28;20191;-56
2023/01/21 01:57:32;;;;;;;13.87;11.03;;;;;;;5.67;100.00;98943.88;5070013;28;20195;-55
2023/01/21 02:00:02;;;;;;;17.03;11.40;;;;;;;5.62;100.00;98948.28;5067921;28;20198;-54
2023/01/21 02:02:29;;;;;;;15.67;10.40;;;;;;;5.73;100.00;98951.53;5069915;28;20211;-55
2023/01/21 02:05:01;;;;;;;13.67;10.77;;;;;;;5.68;100.00;98958.47;5069872;28;20216;-55
2023/01/21 02:07:37;;;;;;;15.03;10.80;;;;;;;5.54;100.00;98944.97;5069815;28;20201;-55
2023/01/21 02:10:06;;;;;;;14.33;10.53;;;;;;;5.69;100.00;98960.16;5068921;28;20191;-59
2023/01/21 02:12:33;;;;;;;13.93;10.20;;;;;;;5.74;100.00;98965.25;5069982;28;20192;-55
2023/01/21 02:15:00;;;;;;;13.33;9.83;;;;;;;5.70;100.00;98954.13;5069671;28;20196;-55
2023/01/21 02:17:46;;;;;;;13.43;10.43;;;;;;;5.71;100.00;98952.41;5069449;28;20661;-58
2023/01/21 02:21:02;;;;;;;12.33;9.80;;;;;;;5.62;100.00;98963.72;5068878;28;20197;-58
2023/01/21 02:23:50;;;;;;;14.50;10.53;;;;;;;5.55;100.00;98956.13;5006948;28;20256;-56
2023/01/21 02:26:42;;;;;;;12.93;10.30;;;;;;;5.43;100.00;98962.34;5061552;28;20192;-55
2023/01/21 02:29:40;;;;;;;11.80;10.10;;;;;;;5.55;100.00;98971.56;5068800;28;20203;-55
2023/01/21 02:32:30;;;;;;;14.10;10.37;;;;;;;5.48;100.00;98976.00;5068658;28;20198;-56
2023/01/21 02:35:05;;;;;;;18.07;11.13;;;;;;;5.46;100.00;98952.84;5066924;28;20293;-54
2023/01/21 02:37:40;;;;;;;19.20;11.80;;;;;;;5.43;100.00;98967.47;5069206;28;20203;-57
2023/01/21 02:40:14;;;;;;;16.87;11.33;;;;;;;5.35;100.00;98954.75;5069427;28;20191;-58
2023/01/21 02:42:46;;;;;;;15.47;10.87;;;;;;;5.32;100.00;98954.78;5067353;28;20222;-58
2023/01/21 02:45:22;;;;;;;13.50;10.83;;;;;;;5.34;100.00;98963.34;5068853;28;20224;-59
2023/01/21 02:47:56;;;;;;;16.27;11.37;;;;;;;5.43;100.00;98960.63;5069308;28;20599;-56
2023/01/21 02:50:28;;;;;;;14.13;10.60;;;;;;;5.44;100.00;98957.16;5068978;28;20194;-58
2023/01/21 02:52:56;;;;;;;13.40;10.60;;;;;;;5.43;100.00;98945.16;5066426;28;20192;-59
2023/01/21 02:55:28;;;;;;;15.83;10.47;;;;;;;5.49;100.00;98951.94;5068949;28;20188;-58
2023/01/21 02:57:57;;;;;;;13.47;10.23;;;;;;;5.54;100.00;98939.84;5066296;28;20188;-57
2023/01/21 03:00:28;;;;;;;16.63;11.23;;;;;;;5.50;100.00;98927.06;5069097;28;20675;-55
2023/01/21 03:03:36;;;;;;;14.13;10.33;;;;;;;5.58;100.00;98948.34;5066344;28;20194;-55
2023/01/21 03:06:32;;;;;;;13.67;10.63;;;;;;;5.52;100.00;98943.34;5066880;28;20188;-58
2023/01/21 03:09:06;;;;;;;17.20;10.90;;;;;;;5.41;100.00;98933.22;5066774;28;20200;-57
2023/01/21 03:11:34;;;;;;;16.87;10.83;;;;;;;5.33;100.00;98937.63;5068574;28;20195;-55
2023/01/21 03:16:58;;;;;;;17.20;11.37;;;;;;;5.30;100.00;98945.44;5068659;28;20755;-60
2023/01/21 03:19:32;;;;;;;20.60;12.13;;;;;;;5.08;100.00;98935.47;5068630;28;20215;-57
2023/01/21 03:22:05;;;;;;;18.00;11.80;;;;;;;5.06;100.00;98950.09;5066361;28;20296;-54
2023/01/21 03:24:34;;;;;;;20.57;12.40;;;;;;;5.05;100.00;98939.81;5068562;28;20193;-55
2023/01/21 03:27:03;;;;;;;21.03;12.97;;;;;;;4.86;100.00;98943.53;5068316;28;20192;-55
2023/01/21 03:29:32;;;;;;;23.57;13.30;;;;;;;4.79;100.00;98932.50;5068419;28;20202;-56
2023/01/21 03:32:04;;;;;;;18.90;12.20;;;;;;;4.80;100.00;98935.94;5068393;28;20201;-54
2023/01/21 03:34:34;;;;;;;17.90;11.77;;;;;;;4.72;100.00;98939.47;5068390;28;20230;-56
2023/01/21 03:37:07;;;;;;;17.70;13.07;;;;;;;4.65;100.00;98929.28;5068366;28;20198;-57
2023/01/21 03:39:42;;;;;;;18.50;12.60;;;;;;;4.69;100.00;98936.09;5065618;28;20204;-58
2023/01/21 03:42:09;;;;;;;18.10;11.83;;;;;;;4.57;100.00;98913.97;5068128;28;20230;-57
2023/01/21 03:44:37;;;;;;;18.70;12.23;;;;;;;4.55;100.00;98910.56;5068371;28;20219;-55
2023/01/21 03:47:16;;;;;;;17.70;11.60;;;;;;;4.37;100.00;98923.69;5068353;28;20198;-55
2023/01/21 03:49:48;;;;;;;17.10;11.87;;;;;;;4.05;100.00;98889.88;5066670;28;20195;-55
2023/01/21 03:52:20;;;;;;;21.80;13.13;;;;;;;4.35;100.00;98933.97;5065780;28;20190;-55
2023/01/21 03:54:48;;;;;;;18.97;11.87;;;;;;;4.31;100.00;98945.16;5068450;28;20192;-54
2023/01/21 03:57:15;;;;;;;16.20;11.73;;;;;;;4.34;100.00;98945.13;5065604;28;20192;-55
2023/01/21 03:59:42;;;;;;;17.30;12.33;;;;;;;4.20;100.00;98962.41;5068398;28;20590;-55
2023/01/21 04:02:09;;;;;;;18.27;12.43;;;;;;;4.18;100.00;98969.28;5068140;28;20261;-55
2023/01/21 04:04:36;;;;;;;16.23;12.37;;;;;;;4.19;100.00;98960.72;5068265;28;20283;-55
2023/01/21 04:07:03;;;;;;;22.10;12.80;;;;;;;4.19;100.00;98976.13;5068292;28;20587;-56
2023/01/21 04:09:32;;;;;;;23.50;13.67;;;;;;;4.13;100.00;98970.22;5068011;28;20317;-55
2023/01/21 04:11:59;;;;;;;23.00;13.63;;;;;;;4.15;100.00;98971.91;5068158;28;20237;-58
2023/01/21 04:14:26;;;;;;;22.50;12.93;;;;;;;4.09;100.00;98971.97;5068198;28;20275;-55
2023/01/21 04:16:53;;;;;;;20.90;13.07;;;;;;;4.01;100.00;98976.34;5068060;28;20200;-55
2023/01/21 04:19:20;;;;;;;24.87;13.50;;;;;;;4.06;100.00;98963.47;5067794;28;20188;-55
2023/01/21 04:21:46;;;;;;;24.53;13.93;;;;;;;4.08;100.00;98961.72;5068172;28;20212;-58
2023/01/21 04:24:13;;;;;;;19.77;12.20;;;;;;;4.09;100.00;98979.66;5067940;28;20582;-57
2023/01/21 04:26:42;;;;;;;21.63;12.87;;;;;;;4.05;100.00;98970.31;5068029;28;20218;-57
2023/01/21 04:29:08;;;;;;;20.03;12.97;;;;;;;4.04;100.00;98971.19;5068031;28;20200;-58
2023/01/21 04:31:35;;;;;;;20.20;12.87;;;;;;;3.92;100.00;98991.84;5065448;28;20566;-57
2023/01/21 04:34:02;;;;;;;21.63;12.03;;;;;;;3.86;100.00;98994.47;5067949;28;20219;-58
2023/01/21 04:36:29;;;;;;;18.77;12.13;;;;;;;3.91;100.00;99003.00;5068270;28;20736;-55
2023/01/21 04:38:56;;;;;;;20.47;12.77;;;;;;;3.89;100.00;98990.16;5065534;28;20583;-55
2023/01/21 04:41:23;;;;;;;22.13;13.17;;;;;;;3.80;100.00;98984.28;5067814;28;20212;-55
2023/01/21 04:43:51;;;;;;;26.00;14.47;;;;;;;3.77;100.00;98998.00;5067635;28;20608;-56
2023/01/21 04:46:18;;;;;;;25.17;14.73;;;;;;;3.72;100.00;98979.25;5069931;28;20195;-58
2023/01/21 04:48:45;;;;;;;24.17;14.03;;;;;;;3.72;100.00;98970.69;5071752;28;20196;-59
2023/01/21 04:51:12;;;;;;;25.63;14.37;;;;;;;3.76;100.00;98980.88;5071299;28;20667;-58
2023/01/21 04:53:39;;;;;;;23.67;14.30;;;;;;;3.77;100.00;98981.75;5071916;28;20546;-57
2023/01/21 04:56:06;;;;;;;22.03;14.70;;;;;;;3.71;100.00;98981.81;5071100;28;20194;-58
2023/01/21 04:58:33;;;;;;;28.63;14.90;;;;;;;3.78;100.00;98986.00;5071030;28;20192;-58
2023/01/21 05:01:02;;;;;;;25.97;14.97;;;;;;;3.90;100.00;98983.31;5071537;28;20508;-59
2023/01/21 05:03:29;;;;;;;27.33;14.80;;;;;;;3.98;100.00;98977.22;5071019;28;20219;-58
2023/01/21 05:05:56;;;;;;;21.97;13.20;;;;;;;4.00;100.00;98977.22;5068838;28;20714;-58
2023/01/21 05:08:22;;;;;;;24.83;14.43;;;;;;;3.95;100.00;98986.69;5071086;28;20612;-55
2023/01/21 05:10:49;;;;;;;26.00;15.80;;;;;;;3.91;100.00;98997.84;5071035;28;20187;-55
2023/01/21 05:13:16;;;;;;;22.47;14.87;;;;;;;3.92;100.00;98994.44;5068180;28;20686;-55
2023/01/21 05:15:43;;;;;;;28.37;16.90;;;;;;;3.89;100.00;99010.72;5070991;28;20287;-56
2023/01/21 05:18:11;;;;;;;27.87;16.87;;;;;;;3.88;100.00;99021.84;5070920;28;20200;-56
2023/01/21 05:20:38;;;;;;;30.87;19.10;;;;;;;3.85;100.00;99003.03;5070880;28;20198;-56
2023/01/21 05:23:05;;;;;;;28.23;17.87;;;;;;;3.85;100.00;99021.00;5070245;28;20212;-56
2023/01/21 05:25:32;;;;;;;30.80;19.30;;;;;;;3.86;100.00;99022.72;5070572;28;20202;-56
2023/01/21 05:27:59;;;;;;;28.23;18.03;;;;;;;3.97;100.00;99015.75;5070727;28;20206;-56
2023/01/21 05:30:26;;;;;;;31.53;18.17;;;;;;;3.96;100.00;99004.63;5070461;28;20207;-56
2023/01/21 05:32:54;;;;;;;28.80;17.83;;;;;;;4.18;100.00;99005.25;5070723;28;20272;-56
2023/01/21 05:35:24;;;;;;;28.47;18.47;;;;;;;4.20;100.00;98992.38;5070566;28;20196;-56
2023/01/21 05:37:51;;;;;;;32.63;17.83;;;;;;;4.28;100.00;99008.59;5070546;28;20198;-56
2023/01/21 05:40:19;;;;;;;34.80;18.87;;;;;;;4.38;100.00;99023.03;5070057;28;20192;-57
2023/01/21 05:42:46;;;;;;;28.83;17.93;;;;;;;4.37;100.00;99017.03;5069822;28;20211;-56
2023/01/21 05:45:14;;;;;;;31.87;18.17;;;;;;;4.35;100.00;99011.06;5070258;28;20207;-59
2023/01/21 05:47:41;;;;;;;42.77;22.10;;;;;;;4.43;100.00;99022.94;5070634;28;20287;-59
2023/01/21 05:50:10;;;;;;;35.63;21.13;;;;;;;4.40;100.00;99025.56;5071813;28;20203;-58
2023/01/21 05:52:38;;;;;;;43.20;23.10;;;;;;;4.38;100.00;99033.28;5071432;28;20196;-56
2023/01/21 05:55:06;;;;;;;41.70;23.57;;;;;;;4.32;100.00;99038.50;5071301;28;20200;-55
2023/01/21 05:57:34;;;;;;;39.60;21.80;;;;;;;4.44;100.00;99037.50;5070296;28;20192;-55
2023/01/21 06:00:01;;;;;;;32.93;18.57;;;;;;;4.29;100.00;99039.38;5071106;28;20214;-57
2023/01/21 06:02:27;;;;;;;32.23;19.93;;;;;;;4.22;100.00;99048.03;5070853;28;20215;-55
2023/01/21 06:04:54;;;;;;;35.47;20.13;;;;;;;4.19;100.00;99044.63;5070723;28;20196;-54
2023/01/21 06:07:21;;;;;;;31.17;18.03;;;;;;;4.17;100.00;99036.97;5070735;28;20200;-54
2023/01/21 06:09:49;;;;;;;28.90;17.40;;;;;;;4.20;100.00;99049.75;5070020;28;20679;-54
2023/01/21 06:12:16;;;;;;;27.97;16.87;;;;;;;4.11;100.00;99039.56;5069902;28;20218;-56
2023/01/21 06:14:43;;;;;;;32.17;17.13;;;;;;;4.27;100.00;99043.69;5070167;28;20203;-55
2023/01/21 06:17:10;;;;;;;35.20;20.60;;;;;;;4.26;100.00;99043.72;5070542;28;20203;-55
2023/01/21 06:19:37;;;;;;;50.87;27.67;;;;;;;4.30;100.00;99048.78;5070469;28;20672;-55
2023/01/21 06:22:04;;;;;;;56.17;29.77;;;;;;;4.25;100.00;99045.44;5070636;28;20219;-58
2023/01/21 06:24:31;;;;;;;53.07;30.60;;;;;;;4.28;100.00;99031.69;5070843;28;20194;-58
2023/01/21 06:26:59;;;;;;;51.13;29.07;;;;;;;4.35;100.00;99021.31;5070858;28;20632;-58
2023/01/21 06:29:26;;;;;;;59.73;31.77;;;;;;;4.43;100.00;99015.25;5070782;28;20934;-58
2023/01/21 06:31:53;;;;;;;57.70;32.30;;;;;;;4.53;100.00;99006.53;5070785;28;20573;-58
2023/01/21 06:34:20;;;;;;;65.37;34.93;;;;;;;4.64;100.00;99009.81;5070061;28;20196;-58
2023/01/21 06:36:47;;;;;;;61.63;33.97;;;;;;;4.72;100.00;99034.59;5066290;28;20226;-55
2023/01/21 06:39:13;;;;;;;67.57;33.67;;;;;;;4.69;100.00;99044.91;5066081;28;20212;-55
2023/01/21 06:41:40;;;;;;;64.20;35.77;;;;;;;4.64;100.00;99050.94;5069006;28;20220;-56
2023/01/21 06:44:09;;;;;;;66.40;36.30;;;;;;;4.69;100.00;99054.31;5068410;28;20243;-59
2023/01/21 06:46:35;;;;;;;62.00;35.03;;;;;;;4.68;100.00;99068.03;5066365;28;20225;-58
2023/01/21 06:49:02;;;;;;;59.50;31.53;;;;;;;4.74;100.00;99078.25;5068069;28;20311;-58
2023/01/21 06:51:29;;;;;;;41.67;22.67;;;;;;;4.75;100.00;99072.22;5068694;28;20224;-59
2023/01/21 06:53:56;;;;;;;35.67;19.40;;;;;;;4.78;100.00;99082.47;5068177;28;20226;-58
2023/01/21 06:56:23;;;;;;;34.07;18.10;;;;;;;4.87;100.00;99076.38;5068410;28;20613;-55
2023/01/21 06:58:50;;;;;;;36.07;18.47;;;;;;;4.62;100.00;99063.00;5064889;28;20232;-55
2023/01/21 07:01:18;;;;;;;33.37;17.80;;;;;;;4.63;100.00;99095.50;5069006;28;20228;-55
2023/01/21 07:03:45;;;;;;;27.30;15.43;;;;;;;4.63;100.00;99095.50;5068974;28;20689;-56
2023/01/21 07:06:12;;;;;;;38.50;17.00;;;;;;;4.59;100.00;99069.00;5069961;28;20219;-55
2023/01/21 07:08:39;;;;;;;37.13;18.20;;;;;;;4.61;100.00;99067.28;5069559;28;20304;-58
2023/01/21 07:11:06;;;;;;;36.83;17.93;;;;;;;4.72;100.00;99087.72;5069354;28;20610;-59
2023/01/21 07:13:33;;;;;;;35.33;19.00;;;;;;;4.87;100.00;99108.06;5069791;28;20704;-58
2023/01/21 07:16:00;;;;;;;34.87;17.37;;;;;;;4.76;100.00;99091.94;5068880;28;20253;-58
2023/01/21 07:18:28;;;;;;;26.57;16.17;;;;;;;4.83;100.00;99108.16;5067958;28;20596;-55
2023/01/21 07:20:56;;;;;;;29.87;16.33;;;;;;;4.82;100.00;99086.72;5069025;28;20272;-54
2023/01/21 07:23:23;;;;;;;29.30;15.83;;;;;;;4.83;100.00;99083.28;5068482;28;20238;-54
2023/01/21 07:25:50;;;;;;;33.70;17.63;;;;;;;4.78;100.00;99087.63;5068881;28;20770;-54
2023/01/21 07:28:17;;;;;;;36.30;18.63;;;;;;;4.82;100.00;99097.00;5068920;28;20226;-55
2023/01/21 07:30:45;;;;;;;40.70;21.83;;;;;;;4.87;100.00;99094.38;5068703;28;20611;-54
2023/01/21 07:33:12;;;;;;;42.50;22.90;;;;;;;4.90;100.00;99097.75;5068042;28;20234;-58
2023/01/21 07:35:40;;;;;;;45.33;23.27;;;;;;;4.75;100.00;99103.06;5068756;28;20232;-58
2023/01/21 07:38:07;;;;;;;43.20;22.87;;;;;;;4.85;100.00;99096.13;5068323;28;20220;-58
2023/01/21 07:40:34;;;;;;;49.30;22.57;;;;;;;4.88;100.00;99112.34;5068330;28;20223;-58
2023/01/21 07:43:01;;;;;;;47.90;22.47;;;;;;;4.92;100.00;99108.03;5068328;28;20333;-58
2023/01/21 07:45:28;;;;;;;51.83;23.90;;;;;;;4.90;100.00;99112.34;5068620;28;20223;-58
2023/01/21 07:47:54;;;;;;;54.00;24.57;;;;;;;4.96;100.00;99110.56;5068026;28;20241;-56
2023/01/21 07:50:21;;;;;;;49.13;22.87;;;;;;;5.07;100.00;99097.56;5068564;28;20230;-58
2023/01/21 07:52:50;;;;;;;51.27;24.70;;;;;;;5.18;100.00;99118.84;5068650;28;20220;-58
2023/01/21 07:55:16;;;;;;;48.13;25.40;;;;;;;5.08;100.00;99109.50;5068479;28;20237;-58
2023/01/21 07:57:43;;;;;;;51.17;23.53;;;;;;;5.06;100.00;99119.84;5068409;28;20251;-59
2023/01/21 08:00:12;;;;;;;51.03;25.57;;;;;;;5.22;100.00;99109.34;5068422;28;20611;-60
2023/01/21 08:02:39;;;;;;;60.47;25.60;;;;;;;5.38;100.00;99124.56;5067972;28;20682;-58
2023/01/21 08:05:07;;;;;;;56.93;27.23;;;;;;;5.65;100.00;99118.13;5068635;28;20226;-58
2023/01/21 08:07:34;;;;;;;43.60;23.70;;;;;;;5.86;100.00;99121.25;5067478;28;20679;-58
2023/01/21 08:10:03;;;;;;;44.03;23.13;;;;;;;6.05;100.00;99113.22;5059641;28;20307;-60
2023/01/21 08:12:29;;;;;;;41.57;21.17;;;;;;;6.16;100.00;99118.19;5048482;28;20223;-59
2023/01/21 08:14:56;;;;;;;42.97;21.97;;;;;;;6.42;100.00;99112.59;5048994;28;20220;-58
2023/01/21 08:17:23;;;;;;;45.63;21.80;;;;;;;6.63;100.00;99113.91;5048381;28;20229;-59
2023/01/21 08:19:50;;;;;;;46.20;23.13;;;;;;;6.70;100.00;99100.84;5049265;28;20600;-55
2023/01/21 08:22:17;;;;;;;45.97;22.10;;;;;;;6.76;100.00;99108.47;5052863;28;20220;-55
2023/01/21 08:24:44;;;;;;;50.80;23.23;;;;;;;6.92;100.00;99109.00;5071717;28;20267;-55
2023/01/21 08:27:12;;;;;;;40.40;21.97;;;;;;;7.03;100.00;99107.06;5073091;28;20623;-55
2023/01/21 08:29:39;;;;;;;43.87;24.33;;;;;;;7.07;100.00;99088.06;5071884;28;20281;-57
2023/01/21 08:32:06;;;;;;;50.37;26.03;;;;;;;7.18;100.00;99106.72;5070752;28;20302;-56
2023/01/21 08:34:33;;;;;;;52.40;25.77;;;;;;;7.25;100.00;99102.28;5072009;28;20311;-56
2023/01/21 08:37:01;;;;;;;65.87;32.23;;;;;;;7.24;100.00;99098.00;5072252;28;20220;-56
2023/01/21 08:39:28;;;;;;;48.30;25.10;;;;;;;7.26;100.00;99110.00;5071474;28;20224;-56
2023/01/21 08:41:54;;;;;;;42.60;23.90;;;;;;;7.21;100.00;99117.00;5062500;28;20314;-56
2023/01/21 08:44:23;;;;;;;47.83;25.47;;;;;;;7.16;100.00;99108.50;5071778;28;20691;-57
2023/01/21 08:46:50;;;;;;;44.23;24.53;;;;;;;7.08;100.00;99114.72;5071572;28;20836;-57
2023/01/21 08:49:17;;;;;;;46.30;24.63;;;;;;;6.96;100.00;99120.97;5072079;28;20303;-56
2023/01/21 08:51:44;;;;;;;46.87;23.30;;;;;;;6.85;100.00;99116.03;5072069;28;20227;-56
2023/01/21 08:54:11;;;;;;;46.27;24.30;;;;;;;6.81;100.00;99105.78;5071594;28;20223;-55
2023/01/21 08:56:38;;;;;;;60.63;27.97;;;;;;;6.84;100.00;99082.53;5071927;28;20224;-58
2023/01/21 08:59:05;;;;;;;48.10;25.27;;;;;;;7.06;100.00;99104.41;5071991;28;20723;-57
2023/01/21 09:01:35;;;;;;;52.33;26.40;;;;;;;7.07;100.00;99085.47;5071222;28;20215;-60
2023/01/21 09:04:02;;;;;;;46.53;25.97;;;;;;;7.06;100.00;99090.66;5071666;28;20618;-59
2023/01/21 09:06:30;;;;;;;52.90;26.20;;;;;;;7.05;100.00;99083.78;5071549;28;20338;-57
2023/01/21 09:08:57;;;;;;;50.73;26.57;;;;;;;6.92;100.00;99063.41;5071882;28;20224;-57
2023/01/21 09:11:25;;;;;;;66.87;27.50;;;;;;;7.11;100.00;99086.25;5071674;28;20219;-58
2023/01/21 09:13:52;;;;;;;55.00;25.07;;;;;;;7.18;100.00;99070.59;5068225;28;20239;-58
2023/01/21 09:16:20;;;;;;;56.23;28.53;;;;;;;7.31;100.00;99065.16;5057916;28;20224;-58
2023/01/21 09:18:49;;;;;;;56.83;29.70;;;;;;;7.49;100.00;99078.50;5056708;28;20216;-55
2023/01/21 09:21:16;;;;;;;49.27;27.07;;;;;;;7.61;100.00;99085.09;5070697;28;20325;-54
2023/01/21 09:23:43;;;;;;;50.23;25.93;;;;;;;7.63;100.00;99079.03;5071395;28;20224;-55
2023/01/21 09:26:14;;;;;;;51.40;26.43;;;;;;;7.56;100.00;99063.72;5070527;28;20311;-55
2023/01/21 09:28:42;;;;;;;46.47;27.30;;;;;;;7.44;100.00;99066.59;5070537;28;20230;-54
2023/01/21 09:31:12;;;;;;;51.87;26.93;;;;;;;7.52;100.00;99080.16;5069642;28;20250;-58
2023/01/21 09:33:40;;;;;;;51.10;27.27;;;;;;;7.50;100.00;99072.44;5070205;28;20483;-57
2023/01/21 09:36:13;;;;;;;54.53;28.97;;;;;;;7.49;100.00;99065.56;5070123;28;20304;-57
2023/01/21 09:38:41;;;;;;;50.93;27.90;;;;;;;7.53;100.00;99066.38;5070609;28;20216;-55
2023/01/21 09:41:18;;;;;;;47.23;25.73;;;;;;;7.64;100.00;99079.88;5070096;28;20223;-58
2023/01/21 09:43:49;;;;;;;46.20;24.47;;;;;;;7.54;100.00;99062.91;5069718;28;20223;-55
2023/01/21 09:46:30;;;;;;;58.60;25.47;;;;;;;7.73;100.00;99056.41;5067919;28;20230;-57
2023/01/21 09:49:02;;;;;;;47.63;24.50;;;;;;;7.61;100.00;99064.44;5051386;28;20618;-57
2023/01/21 09:51:45;;;;;;;46.43;25.50;;;;;;;7.74;100.00;99073.59;5051146;28;20221;-57
2023/01/21 09:54:19;;;;;;;54.03;27.83;;;;;;;7.77;100.00;99072.69;5065386;28;20704;-54
2023/01/21 09:57:04;;;;;;;53.17;27.37;;;;;;;7.56;100.00;99045.63;5070271;28;20594;-54
2023/01/21 09:59:41;;;;;;;49.17;25.43;;;;;;;7.53;100.00;99041.38;5070744;28;20223;-54
2023/01/21 10:02:21;;;;;;;48.63;25.60;;;;;;;7.69;100.00;99047.00;5070112;28;20237;-53
2023/01/21 10:04:54;;;;;;;48.73;26.10;;;;;;;7.73;100.00;99027.97;5071013;28;20231;-55
2023/01/21 10:07:30;;;;;;;55.10;28.27;;;;;;;7.94;100.00;99031.75;5071187;28;20752;-55
2023/01/21 10:10:09;;;;;;;57.73;29.30;;;;;;;8.04;100.00;99038.38;5071351;28;20745;-54
2023/01/21 10:12:53;;;;;;;52.83;27.80;;;;;;;7.87;100.00;99007.81;5071186;28;20196;-57
2023/01/21 10:15:47;;;;;;;55.30;30.43;;;;;;;8.17;100.00;99037.16;5071049;28;20584;-57
2023/01/21 10:18:18;;;;;;;51.07;27.30;;;;;;;8.20;100.00;99021.56;5068652;28;20196;-58
2023/01/21 10:20:50;;;;;;;54.00;28.20;;;;;;;8.19;100.00;99026.78;5071167;28;20206;-58
2023/01/21 10:23:24;;;;;;;51.33;29.50;;;;;;;8.21;100.00;99027.59;5070913;28;20224;-58
2023/01/21 10:25:51;;;;;;;52.70;28.80;;;;;;;8.24;100.00;99018.00;5070928;28;20196;-58
2023/01/21 10:28:24;;;;;;;58.77;28.87;;;;;;;8.18;100.00;99012.16;5071093;28;20627;-57
2023/01/21 10:30:53;;;;;;;53.67;30.67;;;;;;;8.31;100.00;99000.59;5071101;28;20196;-54
2023/01/21 10:33:22;;;;;;;54.50;30.80;;;;;;;8.41;100.00;98985.69;5071061;28;20195;-54
2023/01/21 10:36:12;;;;;;;48.97;28.00;;;;;;;8.63;100.00;98995.38;5070886;28;20199;-55
2023/01/21 10:38:48;;;;;;;50.93;25.13;;;;;;;8.80;100.00;98988.88;5070851;28;20652;-58
2023/01/21 10:41:30;;;;;;;46.23;25.53;;;;;;;8.76;100.00;98966.56;5070717;28;20286;-58
2023/01/21 10:44:03;;;;;;;41.67;23.87;;;;;;;8.73;100.00;98967.50;5069912;28;20315;-57
2023/01/21 10:46:40;;;;;;;41.03;24.43;;;;;;;8.70;100.00;98970.16;5070320;28;20235;-58
2023/01/21 10:49:21;;;;;;;38.50;23.67;;;;;;;8.77;100.00;98968.25;5070718;28;20649;-57
2023/01/21 10:51:54;;;;;;;43.67;25.10;;;;;;;8.85;100.00;98969.72;5070476;28;20213;-58
2023/01/21 10:54:36;;;;;;;44.53;24.20;;;;;;;8.98;100.00;98970.19;5070991;28;20195;-61
2023/01/21 10:57:23;;;;;;;41.80;23.70;;;;;;;9.08;100.00;98961.25;5070279;28;20644;-60
2023/01/21 10:59:51;;;;;;;45.20;24.30;;;;;;;9.19;100.00;98956.56;5070277;28;20495;-58
2023/01/21 11:02:24;;;;;;;38.33;23.53;;;;;;;9.15;100.00;98956.69;5069100;28;20200;-58
2023/01/21 11:04:51;;;;;;;47.40;24.40;;;;;;;9.08;100.00;98932.75;5069676;28;20235;-57
2023/01/21 11:07:20;;;;;;;44.60;24.87;;;;;;;9.09;100.00;98957.75;5069281;28;20195;-58
2023/01/21 11:09:49;;;;;;;43.80;23.67;;;;;;;9.19;100.00;98941.03;5069773;28;20211;-58
2023/01/21 11:12:19;;;;;;;44.90;25.47;;;;;;;9.35;100.00;98936.22;5050145;28;20588;-57
2023/01/21 11:14:50;;;;;;;44.23;26.60;;;;;;;9.56;100.00;98916.50;5050271;28;20193;-55
2023/01/21 11:17:32;;;;;;;42.60;24.80;;;;;;;9.56;100.00;98929.47;5049347;28;20196;-54
2023/01/21 11:19:59;;;;;;;44.30;24.03;;;;;;;9.67;100.00;98946.34;5049458;28;20578;-55
2023/01/21 11:22:31;;;;;;;47.47;23.97;;;;;;;9.53;100.00;98955.47;5059106;28;20196;-55
2023/01/21 11:25:01;;;;;;;48.73;25.00;;;;;;;9.63;100.00;98959.44;5068699;28;20233;-55
2023/01/21 11:27:35;;;;;;;49.53;28.53;;;;;;;9.75;100.00;98940.88;5068420;28;20203;-54
2023/01/21 11:30:02;;;;;;;44.63;25.63;;;;;;;10.01;100.00;98958.13;5066253;28;20222;-55
2023/01/21 11:32:31;;;;;;;43.23;26.20;;;;;;;9.91;100.00;98952.41;5069151;28;20195;-55